sensor_id;sensor_type;location;lat;lon;timestamp;pressure;altitude;pressure_sealevel;temperature;humidity
35918;BME280;22011;59.912;30.300;2023-05-29T00:01:48;101365.47;;;14.56;38.92
35918;BME280;22011;59.912;30.300;2023-05-29T00:04:15;101363.16;;;14.53;38.71
35918;BME280;22011;59.912;30.300;2023-05-29T00:06:42;101359.47;;;14.54;38.83
35918;BME280;22011;59.912;30.300;2023-05-29T00:09:10;101361.84;;;14.49;39.18
35918;BME280;22011;59.912;30.300;2023-05-29T00:11:37;101366.06;;;14.44;39.03
35918;BME280;22011;59.912;30.300;2023-05-29T00:14:05;101364.53;;;14.41;39.37
35918;BME280;22011;59.912;30.300;2023-05-29T00:16:32;101366.56;;;14.39;39.71
35918;BME280;22011;59.912;30.300;2023-05-29T00:19:01;101363.88;;;14.39;39.79
35918;BME280;22011;59.912;30.300;2023-05-29T00:21:29;101363.38;;;14.35;39.37
35918;BME280;22011;59.912;30.300;2023-05-29T00:23:56;101360.72;;;14.35;39.86
35918;BME280;22011;59.912;30.300;2023-05-29T00:26:24;101360.88;;;14.34;39.69
35918;BME280;22011;59.912;30.300;2023-05-29T00:28:54;101363.09;;;14.30;40.22
35918;BME280;22011;59.912;30.300;2023-05-29T00:31:22;101367.78;;;14.28;39.53
35918;BME280;22011;59.912;30.300;2023-05-29T00:33:50;101360.09;;;14.25;39.63
35918;BME280;22011;59.912;30.300;2023-05-29T00:36:19;101369.31;;;14.23;40.28
35918;BME280;22011;59.912;30.300;2023-05-29T00:38:47;101372.69;;;14.17;40.16
35918;BME280;22011;59.912;30.300;2023-05-29T00:41:15;101374.34;;;14.18;39.75
35918;BME280;22011;59.912;30.300;2023-05-29T00:43:43;101368.16;;;14.17;40.34
35918;BME280;22011;59.912;30.300;2023-05-29T00:46:13;101375.69;;;14.22;40.11
35918;BME280;22011;59.912;30.300;2023-05-29T00:48:41;101377.94;;;14.49;39.08
35918;BME280;22011;59.912;30.300;2023-05-29T00:51:10;101374.50;;;14.24;39.79
35918;BME280;22011;59.912;30.300;2023-05-29T00:53:40;101378.69;;;14.27;40.39
35918;BME280;22011;59.912;30.300;2023-05-29T00:56:10;101370.47;;;14.28;40.16
35918;BME280;22011;59.912;30.300;2023-05-29T00:58:38;101371.28;;;14.29;40.48
35918;BME280;22011;59.912;30.300;2023-05-29T01:01:05;101368.31;;;14.24;40.13
35918;BME280;22011;59.912;30.300;2023-05-29T01:03:33;101370.16;;;14.23;40.55
35918;BME280;22011;59.912;30.300;2023-05-29T01:06:01;101372.81;;;14.23;41.17
35918;BME280;22011;59.912;30.300;2023-05-29T01:08:29;101365.31;;;14.19;40.95
35918;BME280;22011;59.912;30.300;2023-05-29T01:11:02;101362.59;;;14.27;41.99
35918;BME280;22011;59.912;30.300;2023-05-29T01:13:34;101364.97;;;14.22;41.74
35918;BME280;22011;59.912;30.300;2023-05-29T01:16:09;101360.91;;;14.26;42.12
35918;BME280;22011;59.912;30.300;2023-05-29T01:18:46;101367.94;;;14.27;42.42
35918;BME280;22011;59.912;30.300;2023-05-29T01:21:36;101368.78;;;14.27;41.95
35918;BME280;22011;59.912;30.300;2023-05-29T01:24:14;101362.78;;;14.25;42.28
35918;BME280;22011;59.912;30.300;2023-05-29T01:34:15;101371.69;;;14.18;42.68
35918;BME280;22011;59.912;30.300;2023-05-29T01:36:43;101370.19;;;14.15;42.28
35918;BME280;22011;59.912;30.300;2023-05-29T01:39:12;101373.22;;;14.12;42.34
35918;BME280;22011;59.912;30.300;2023-05-29T01:41:40;101362.66;;;14.11;42.89
35918;BME280;22011;59.912;30.300;2023-05-29T01:44:09;101358.84;;;14.05;43.60
35918;BME280;22011;59.912;30.300;2023-05-29T01:46:39;101363.19;;;14.06;43.25
35918;BME280;22011;59.912;30.300;2023-05-29T01:49:08;101377.75;;;14.03;43.73
35918;BME280;22011;59.912;30.300;2023-05-29T01:51:37;101374.88;;;14.13;43.75
35918;BME280;22011;59.912;30.300;2023-05-29T01:54:05;101376.03;;;14.19;43.59
35918;BME280;22011;59.912;30.300;2023-05-29T01:56:33;101370.16;;;14.23;44.35
35918;BME280;22011;59.912;30.300;2023-05-29T01:59:02;101372.34;;;14.20;44.94
35918;BME280;22011;59.912;30.300;2023-05-29T02:01:31;101379.53;;;14.19;46.19
35918;BME280;22011;59.912;30.300;2023-05-29T02:03:58;101379.38;;;14.21;46.60
35918;BME280;22011;59.912;30.300;2023-05-29T02:06:26;101372.81;;;14.23;46.92
35918;BME280;22011;59.912;30.300;2023-05-29T02:08:55;101379.69;;;14.26;47.71
35918;BME280;22011;59.912;30.300;2023-05-29T02:11:22;101375.84;;;14.20;48.30
35918;BME280;22011;59.912;30.300;2023-05-29T02:13:50;101380.38;;;14.20;48.89
35918;BME280;22011;59.912;30.300;2023-05-29T02:16:18;101383.09;;;14.12;49.53
35918;BME280;22011;59.912;30.300;2023-05-29T02:18:46;101382.78;;;14.06;50.29
35918;BME280;22011;59.912;30.300;2023-05-29T02:21:14;101375.78;;;13.97;50.64
35918;BME280;22011;59.912;30.300;2023-05-29T02:23:43;101373.78;;;13.91;51.28
35918;BME280;22011;59.912;30.300;2023-05-29T02:26:12;101377.78;;;13.95;51.79
35918;BME280;22011;59.912;30.300;2023-05-29T02:28:40;101383.06;;;14.20;49.67
35918;BME280;22011;59.912;30.300;2023-05-29T02:31:07;101383.50;;;13.92;52.04
35918;BME280;22011;59.912;30.300;2023-05-29T02:33:36;101386.81;;;13.94;52.71
35918;BME280;22011;59.912;30.300;2023-05-29T02:36:04;101392.53;;;13.91;54.00
35918;BME280;22011;59.912;30.300;2023-05-29T02:38:37;101390.84;;;13.90;55.47
35918;BME280;22011;59.912;30.300;2023-05-29T02:41:06;101383.84;;;13.89;56.91
35918;BME280;22011;59.912;30.300;2023-05-29T02:43:35;101395.53;;;13.96;57.26
35918;BME280;22011;59.912;30.300;2023-05-29T02:46:02;101387.00;;;13.93;58.09
35918;BME280;22011;59.912;30.300;2023-05-29T02:48:30;101388.66;;;13.94;58.84
35918;BME280;22011;59.912;30.300;2023-05-29T02:50:57;101390.00;;;13.98;59.06
35918;BME280;22011;59.912;30.300;2023-05-29T02:53:25;101388.50;;;13.95;59.26
35918;BME280;22011;59.912;30.300;2023-05-29T02:55:52;101388.00;;;13.92;60.03
35918;BME280;22011;59.912;30.300;2023-05-29T02:58:21;101381.81;;;13.91;60.63
35918;BME280;22011;59.912;30.300;2023-05-29T03:00:50;101393.19;;;13.93;60.83
35918;BME280;22011;59.912;30.300;2023-05-29T03:03:19;101388.66;;;13.94;61.14
35918;BME280;22011;59.912;30.300;2023-05-29T03:05:46;101372.44;;;13.87;61.55
35918;BME280;22011;59.912;30.300;2023-05-29T03:08:14;101380.78;;;14.00;61.43
35918;BME280;22011;59.912;30.300;2023-05-29T03:10:43;101383.97;;;13.96;61.77
35918;BME280;22011;59.912;30.300;2023-05-29T03:13:11;101380.47;;;13.95;62.41
35918;BME280;22011;59.912;30.300;2023-05-29T03:15:44;101380.63;;;13.94;62.29
35918;BME280;22011;59.912;30.300;2023-05-29T03:18:14;101391.84;;;13.97;62.59
35918;BME280;22011;59.912;30.300;2023-05-29T03:20:41;101393.69;;;13.97;62.76
35918;BME280;22011;59.912;30.300;2023-05-29T03:23:09;101386.13;;;14.00;62.87
35918;BME280;22011;59.912;30.300;2023-05-29T03:25:37;101379.13;;;13.99;62.70
35918;BME280;22011;59.912;30.300;2023-05-29T03:28:04;101376.94;;;14.03;62.84
35918;BME280;22011;59.912;30.300;2023-05-29T03:30:32;101373.59;;;14.01;63.05
35918;BME280;22011;59.912;30.300;2023-05-29T03:32:59;101379.13;;;13.99;63.57
35918;BME280;22011;59.912;30.300;2023-05-29T03:35:47;101381.59;;;14.09;63.69
35918;BME280;22011;59.912;30.300;2023-05-29T03:38:14;101386.91;;;14.17;63.32
35918;BME280;22011;59.912;30.300;2023-05-29T03:40:42;101386.41;;;14.22;62.55
35918;BME280;22011;59.912;30.300;2023-05-29T03:43:09;101388.38;;;14.28;62.74
35918;BME280;22011;59.912;30.300;2023-05-29T03:45:37;101386.19;;;14.31;62.48
35918;BME280;22011;59.912;30.300;2023-05-29T03:48:04;101392.03;;;14.43;62.28
35918;BME280;22011;59.912;30.300;2023-05-29T03:50:32;101390.84;;;14.46;62.57
35918;BME280;22011;59.912;30.300;2023-05-29T03:53:01;101396.03;;;14.47;62.39
35918;BME280;22011;59.912;30.300;2023-05-29T03:55:29;101385.50;;;14.46;62.73
35918;BME280;22011;59.912;30.300;2023-05-29T03:57:56;101393.72;;;14.44;62.92
35918;BME280;22011;59.912;30.300;2023-05-29T04:00:24;101390.84;;;14.46;62.88
35918;BME280;22011;59.912;30.300;2023-05-29T04:02:52;101390.31;;;14.50;63.23
35918;BME280;22011;59.912;30.300;2023-05-29T04:05:20;101393.41;;;14.62;62.48
35918;BME280;22011;59.912;30.300;2023-05-29T04:07:47;101390.56;;;14.63;62.53
35918;BME280;22011;59.912;30.300;2023-05-29T04:10:16;101385.09;;;14.80;62.60
35918;BME280;22011;59.912;30.300;2023-05-29T04:12:44;101385.47;;;15.22;59.66
35918;BME280;22011;59.912;30.300;2023-05-29T04:15:11;101387.75;;;15.11;60.73
35918;BME280;22011;59.912;30.300;2023-05-29T04:17:39;101389.00;;;15.00;60.50
35918;BME280;22011;59.912;30.300;2023-05-29T04:20:08;101392.09;;;14.89;60.95
35918;BME280;22011;59.912;30.300;2023-05-29T04:22:36;101393.16;;;14.80;61.31
35918;BME280;22011;59.912;30.300;2023-05-29T04:25:04;101388.50;;;14.73;61.77
35918;BME280;22011;59.912;30.300;2023-05-29T04:27:33;101393.56;;;14.68;62.70
35918;BME280;22011;59.912;30.300;2023-05-29T04:30:06;101402.66;;;14.59;62.58
35918;BME280;22011;59.912;30.300;2023-05-29T04:32:42;101404.03;;;14.55;62.45
35918;BME280;22011;59.912;30.300;2023-05-29T04:35:10;101400.63;;;14.61;62.41
35918;BME280;22011;59.912;30.300;2023-05-29T04:37:42;101401.63;;;14.60;62.26
35918;BME280;22011;59.912;30.300;2023-05-29T04:40:11;101410.00;;;14.65;62.79
35918;BME280;22011;59.912;30.300;2023-05-29T04:42:45;101418.34;;;14.70;62.78
35918;BME280;22011;59.912;30.300;2023-05-29T04:45:13;101418.66;;;14.76;62.34
35918;BME280;22011;59.912;30.300;2023-05-29T04:47:42;101419.09;;;14.87;62.12
35918;BME280;22011;59.912;30.300;2023-05-29T04:50:12;101413.50;;;14.97;61.97
35918;BME280;22011;59.912;30.300;2023-05-29T04:52:42;101418.34;;;15.01;62.08
35918;BME280;22011;59.912;30.300;2023-05-29T04:55:11;101414.56;;;15.11;61.31
35918;BME280;22011;59.912;30.300;2023-05-29T04:57:38;101407.13;;;15.21;60.89
35918;BME280;22011;59.912;30.300;2023-05-29T05:00:11;101411.81;;;15.42;60.84
35918;BME280;22011;59.912;30.300;2023-05-29T05:02:41;101406.34;;;15.35;60.79
35918;BME280;22011;59.912;30.300;2023-05-29T05:05:10;101409.25;;;15.25;60.56
35918;BME280;22011;59.912;30.300;2023-05-29T05:07:38;101407.13;;;15.21;60.77
35918;BME280;22011;59.912;30.300;2023-05-29T05:10:07;101407.34;;;15.11;61.48
35918;BME280;22011;59.912;30.300;2023-05-29T05:12:35;101411.66;;;15.20;61.03
35918;BME280;22011;59.912;30.300;2023-05-29T05:15:03;101406.00;;;15.15;60.95
35918;BME280;22011;59.912;30.300;2023-05-29T05:17:34;101410.38;;;15.54;61.19
35918;BME280;22011;59.912;30.300;2023-05-29T05:20:01;101399.59;;;15.16;61.39
35918;BME280;22011;59.912;30.300;2023-05-29T05:22:32;101411.34;;;15.15;61.08
35918;BME280;22011;59.912;30.300;2023-05-29T05:25:00;101419.22;;;15.17;60.97
35918;BME280;22011;59.912;30.300;2023-05-29T05:27:28;101411.66;;;15.20;60.90
35918;BME280;22011;59.912;30.300;2023-05-29T05:29:55;101422.50;;;15.27;60.66
35918;BME280;22011;59.912;30.300;2023-05-29T05:32:23;101417.91;;;15.35;60.37
35918;BME280;22011;59.912;30.300;2023-05-29T05:35:00;101413.19;;;15.37;60.93
35918;BME280;22011;59.912;30.300;2023-05-29T05:37:29;101413.81;;;15.62;60.21
35918;BME280;22011;59.912;30.300;2023-05-29T05:39:57;101409.91;;;15.27;60.42
35918;BME280;22011;59.912;30.300;2023-05-29T05:42:26;101418.28;;;15.32;60.39
35918;BME280;22011;59.912;30.300;2023-05-29T05:45:00;101413.44;;;15.28;60.50
35918;BME280;22011;59.912;30.300;2023-05-29T05:47:29;101414.44;;;15.27;60.29
35918;BME280;22011;59.912;30.300;2023-05-29T05:49:58;101424.34;;;15.26;60.54
35918;BME280;22011;59.912;30.300;2023-05-29T05:52:27;101421.50;;;15.28;60.70
35918;BME280;22011;59.912;30.300;2023-05-29T05:54:57;101416.31;;;15.26;60.43
35918;BME280;22011;59.912;30.300;2023-05-29T05:57:25;101415.09;;;15.29;60.28
35918;BME280;22011;59.912;30.300;2023-05-29T05:59:53;101414.69;;;15.40;60.16
35918;BME280;22011;59.912;30.300;2023-05-29T06:02:22;101417.22;;;15.56;59.54
35918;BME280;22011;59.912;30.300;2023-05-29T06:04:50;101408.09;;;15.80;58.77
35918;BME280;22011;59.912;30.300;2023-05-29T06:07:18;101415.25;;;16.02;58.37
35918;BME280;22011;59.912;30.300;2023-05-29T06:09:48;101416.84;;;16.12;58.76
35918;BME280;22011;59.912;30.300;2023-05-29T06:12:15;101413.03;;;15.91;58.68
35918;BME280;22011;59.912;30.300;2023-05-29T06:14:54;101408.53;;;15.69;58.80
35918;BME280;22011;59.912;30.300;2023-05-29T06:17:22;101419.75;;;15.73;59.25
35918;BME280;22011;59.912;30.300;2023-05-29T06:19:50;101418.56;;;15.75;59.09
35918;BME280;22011;59.912;30.300;2023-05-29T06:22:18;101415.25;;;15.88;58.73
35918;BME280;22011;59.912;30.300;2023-05-29T06:24:47;101421.91;;;15.92;58.87
35918;BME280;22011;59.912;30.300;2023-05-29T06:27:15;101419.88;;;15.94;59.14
35918;BME280;22011;59.912;30.300;2023-05-29T06:29:43;101416.72;;;15.90;58.96
35918;BME280;22011;59.912;30.300;2023-05-29T06:32:11;101416.94;;;16.03;58.64
35918;BME280;22011;59.912;30.300;2023-05-29T06:34:38;101409.13;;;16.09;57.88
35918;BME280;22011;59.912;30.300;2023-05-29T06:37:06;101413.13;;;16.13;57.98
35918;BME280;22011;59.912;30.300;2023-05-29T06:39:33;101419.16;;;16.15;57.93
35918;BME280;22011;59.912;30.300;2023-05-29T06:42:02;101416.38;;;16.23;58.18
35918;BME280;22011;59.912;30.300;2023-05-29T06:44:38;101416.91;;;16.33;57.22
35918;BME280;22011;59.912;30.300;2023-05-29T06:47:08;101420.16;;;16.43;57.39
35918;BME280;22011;59.912;30.300;2023-05-29T06:49:35;101418.38;;;16.50;57.05
35918;BME280;22011;59.912;30.300;2023-05-29T06:52:03;101418.81;;;16.68;56.16
35918;BME280;22011;59.912;30.300;2023-05-29T06:54:56;101424.66;;;16.72;56.17
35918;BME280;22011;59.912;30.300;2023-05-29T06:57:26;101435.31;;;16.80;56.10
35918;BME280;22011;59.912;30.300;2023-05-29T06:59:54;101430.94;;;16.79;55.54
35918;BME280;22011;59.912;30.300;2023-05-29T07:02:22;101430.13;;;16.79;55.20
35918;BME280;22011;59.912;30.300;2023-05-29T07:04:54;101426.03;;;16.83;55.14
35918;BME280;22011;59.912;30.300;2023-05-29T07:07:22;101429.28;;;16.78;55.32
35918;BME280;22011;59.912;30.300;2023-05-29T07:09:49;101431.22;;;16.84;54.94
35918;BME280;22011;59.912;30.300;2023-05-29T07:12:17;101432.19;;;16.98;54.24
35918;BME280;22011;59.912;30.300;2023-05-29T07:14:46;101440.66;;;17.16;53.68
35918;BME280;22011;59.912;30.300;2023-05-29T07:17:15;101432.59;;;17.16;53.79
35918;BME280;22011;59.912;30.300;2023-05-29T07:19:42;101425.41;;;17.23;53.62
35918;BME280;22011;59.912;30.300;2023-05-29T07:22:10;101434.56;;;17.29;53.85
35918;BME280;22011;59.912;30.300;2023-05-29T07:24:38;101428.88;;;17.39;53.37
35918;BME280;22011;59.912;30.300;2023-05-29T07:27:06;101438.69;;;17.46;52.57
35918;BME280;22011;59.912;30.300;2023-05-29T07:29:34;101437.53;;;17.83;52.39
35918;BME280;22011;59.912;30.300;2023-05-29T07:32:04;101436.75;;;17.89;52.81
35918;BME280;22011;59.912;30.300;2023-05-29T07:34:32;101441.50;;;17.87;52.84
35918;BME280;22011;59.912;30.300;2023-05-29T07:37:01;101445.81;;;17.82;53.30
35918;BME280;22011;59.912;30.300;2023-05-29T07:39:30;101454.88;;;17.74;52.90
35918;BME280;22011;59.912;30.300;2023-05-29T07:42:03;101447.66;;;17.81;52.68
35918;BME280;22011;59.912;30.300;2023-05-29T07:44:31;101437.91;;;17.80;52.15
35918;BME280;22011;59.912;30.300;2023-05-29T07:46:59;101447.19;;;17.71;52.20
35918;BME280;22011;59.912;30.300;2023-05-29T07:49:41;101448.88;;;17.51;52.69
35918;BME280;22011;59.912;30.300;2023-05-29T07:52:10;101450.75;;;17.29;52.71
35918;BME280;22011;59.912;30.300;2023-05-29T07:54:37;101447.97;;;17.22;53.25
35918;BME280;22011;59.912;30.300;2023-05-29T07:57:08;101452.91;;;17.40;53.01
35918;BME280;22011;59.912;30.300;2023-05-29T07:59:40;101465.44;;;17.48;53.28
35918;BME280;22011;59.912;30.300;2023-05-29T08:02:09;101454.91;;;17.53;52.16
35918;BME280;22011;59.912;30.300;2023-05-29T08:04:56;101441.44;;;17.81;51.58
35918;BME280;22011;59.912;30.300;2023-05-29T08:07:24;101452.22;;;18.09;49.85
35918;BME280;22011;59.912;30.300;2023-05-29T08:09:53;101453.06;;;18.09;48.92
35918;BME280;22011;59.912;30.300;2023-05-29T08:12:20;101459.28;;;18.10;48.80
35918;BME280;22011;59.912;30.300;2023-05-29T08:14:49;101453.41;;;18.00;48.85
35918;BME280;22011;59.912;30.300;2023-05-29T08:17:17;101448.50;;;17.82;49.00
35918;BME280;22011;59.912;30.300;2023-05-29T08:19:44;101453.09;;;17.60;49.92
35918;BME280;22011;59.912;30.300;2023-05-29T08:22:14;101454.66;;;17.48;50.67
35918;BME280;22011;59.912;30.300;2023-05-29T08:24:42;101454.13;;;17.38;49.60
35918;BME280;22011;59.912;30.300;2023-05-29T08:27:09;101461.06;;;17.25;48.45
35918;BME280;22011;59.912;30.300;2023-05-29T08:29:37;101455.28;;;17.28;48.25
35918;BME280;22011;59.912;30.300;2023-05-29T08:32:04;101453.44;;;17.29;47.36
35918;BME280;22011;59.912;30.300;2023-05-29T08:34:32;101449.91;;;17.28;47.88
35918;BME280;22011;59.912;30.300;2023-05-29T08:37:00;101458.75;;;17.22;47.82
35918;BME280;22011;59.912;30.300;2023-05-29T08:39:29;101458.50;;;17.17;47.92
35918;BME280;22011;59.912;30.300;2023-05-29T08:41:59;101460.63;;;17.22;48.10
35918;BME280;22011;59.912;30.300;2023-05-29T08:44:30;101462.28;;;17.23;48.09
35918;BME280;22011;59.912;30.300;2023-05-29T08:47:01;101462.72;;;17.26;46.69
35918;BME280;22011;59.912;30.300;2023-05-29T08:49:37;101461.91;;;17.26;46.45
35918;BME280;22011;59.912;30.300;2023-05-29T08:52:11;101466.00;;;17.22;45.99
35918;BME280;22011;59.912;30.300;2023-05-29T08:54:40;101465.59;;;17.04;45.85
35918;BME280;22011;59.912;30.300;2023-05-29T08:57:09;101460.03;;;17.05;45.99
35918;BME280;22011;59.912;30.300;2023-05-29T08:59:42;101461.19;;;17.17;46.22
35918;BME280;22011;59.912;30.300;2023-05-29T09:02:10;101448.03;;;17.08;45.61
35918;BME280;22011;59.912;30.300;2023-05-29T09:04:41;101460.56;;;17.37;45.37
35918;BME280;22011;59.912;30.300;2023-05-29T09:07:12;101450.94;;;17.49;44.29
35918;BME280;22011;59.912;30.300;2023-05-29T09:09:41;101451.94;;;17.69;43.54
35918;BME280;22011;59.912;30.300;2023-05-29T09:12:09;101443.06;;;17.75;43.15
35918;BME280;22011;59.912;30.300;2023-05-29T09:14:38;101464.00;;;17.73;42.77
35918;BME280;22011;59.912;30.300;2023-05-29T09:17:07;101462.31;;;17.72;42.39
35918;BME280;22011;59.912;30.300;2023-05-29T09:19:35;101466.03;;;17.71;42.83
35918;BME280;22011;59.912;30.300;2023-05-29T09:22:06;101456.72;;;17.67;43.24
35918;BME280;22011;59.912;30.300;2023-05-29T09:24:34;101466.38;;;17.61;43.13
35918;BME280;22011;59.912;30.300;2023-05-29T09:27:04;101463.59;;;17.76;43.81
35918;BME280;22011;59.912;30.300;2023-05-29T09:33:15;101452.09;;;17.40;42.13
35918;BME280;22011;59.912;30.300;2023-05-29T09:35:44;101455.41;;;17.20;40.87
35918;BME280;22011;59.912;30.300;2023-05-29T09:38:14;101463.69;;;17.19;40.58
35918;BME280;22011;59.912;30.300;2023-05-29T09:40:42;101475.31;;;17.41;39.36
35918;BME280;22011;59.912;30.300;2023-05-29T09:43:14;101460.63;;;17.92;37.69
35918;BME280;22011;59.912;30.300;2023-05-29T09:45:44;101460.06;;;18.38;37.04
35918;BME280;22011;59.912;30.300;2023-05-29T09:48:13;101467.38;;;18.44;35.44
35918;BME280;22011;59.912;30.300;2023-05-29T09:50:41;101464.25;;;18.41;34.78
35918;BME280;22011;59.912;30.300;2023-05-29T09:53:17;101475.00;;;18.34;36.52
35918;BME280;22011;59.912;30.300;2023-05-29T09:55:46;101460.47;;;18.01;36.58
35918;BME280;22011;59.912;30.300;2023-05-29T09:58:17;101464.88;;;17.80;38.04
35918;BME280;22011;59.912;30.300;2023-05-29T10:00:46;101464.13;;;17.65;38.05
35918;BME280;22011;59.912;30.300;2023-05-29T10:03:15;101469.25;;;17.60;38.22
35918;BME280;22011;59.912;30.300;2023-05-29T10:05:43;101471.31;;;17.58;39.08
35918;BME280;22011;59.912;30.300;2023-05-29T10:08:12;101475.03;;;17.57;38.99
35918;BME280;22011;59.912;30.300;2023-05-29T10:10:43;101473.00;;;17.59;38.76
35918;BME280;22011;59.912;30.300;2023-05-29T10:13:14;101476.00;;;17.71;39.77
35918;BME280;22011;59.912;30.300;2023-05-29T10:15:44;101477.69;;;18.00;39.13
35918;BME280;22011;59.912;30.300;2023-05-29T10:18:16;101482.75;;;17.60;38.56
35918;BME280;22011;59.912;30.300;2023-05-29T10:20:49;101471.25;;;17.51;38.30
35918;BME280;22011;59.912;30.300;2023-05-29T10:23:21;101477.09;;;17.55;38.32
35918;BME280;22011;59.912;30.300;2023-05-29T10:25:51;101481.41;;;17.49;37.78
35918;BME280;22011;59.912;30.300;2023-05-29T10:28:19;101490.41;;;17.84;38.39
35918;BME280;22011;59.912;30.300;2023-05-29T10:30:52;101487.09;;;17.61;38.62
35918;BME280;22011;59.912;30.300;2023-05-29T10:33:35;101482.00;;;17.66;38.91
35918;BME280;22011;59.912;30.300;2023-05-29T10:36:09;101480.97;;;17.67;39.40
35918;BME280;22011;59.912;30.300;2023-05-29T10:38:41;101482.59;;;17.68;38.95
35918;BME280;22011;59.912;30.300;2023-05-29T10:41:31;101488.22;;;17.94;38.65
35918;BME280;22011;59.912;30.300;2023-05-29T10:44:38;101487.31;;;17.87;37.90
35918;BME280;22011;59.912;30.300;2023-05-29T10:47:10;101493.13;;;17.63;36.81
35918;BME280;22011;59.912;30.300;2023-05-29T10:49:38;101499.88;;;17.52;35.67
35918;BME280;22011;59.912;30.300;2023-05-29T10:52:06;101494.94;;;17.56;35.36
35918;BME280;22011;59.912;30.300;2023-05-29T10:54:50;101507.69;;;17.69;37.08
35918;BME280;22011;59.912;30.300;2023-05-29T10:57:21;101516.75;;;17.40;38.55
35918;BME280;22011;59.912;30.300;2023-05-29T11:00:02;101519.63;;;17.38;38.59
35918;BME280;22011;59.912;30.300;2023-05-29T11:02:38;101523.56;;;17.21;39.86
35918;BME280;22011;59.912;30.300;2023-05-29T11:05:22;101521.88;;;17.35;39.78
35918;BME280;22011;59.912;30.300;2023-05-29T11:07:58;101521.09;;;17.41;40.08
35918;BME280;22011;59.912;30.300;2023-05-29T11:10:56;101512.97;;;17.55;40.54
35918;BME280;22011;59.912;30.300;2023-05-29T11:16:11;101529.47;;;17.67;40.85
35918;BME280;22011;59.912;30.300;2023-05-29T11:18:42;101532.72;;;17.41;40.93
35918;BME280;22011;59.912;30.300;2023-05-29T11:21:23;101528.81;;;17.65;40.88
35918;BME280;22011;59.912;30.300;2023-05-29T11:23:58;101537.75;;;17.66;39.37
35918;BME280;22011;59.912;30.300;2023-05-29T11:26:27;101527.13;;;17.64;39.19
35918;BME280;22011;59.912;30.300;2023-05-29T11:28:57;101529.06;;;17.70;38.33
35918;BME280;22011;59.912;30.300;2023-05-29T11:31:27;101525.22;;;17.79;37.57
35918;BME280;22011;59.912;30.300;2023-05-29T11:34:00;101530.56;;;18.01;38.02
35918;BME280;22011;59.912;30.300;2023-05-29T11:36:31;101531.69;;;17.85;36.49
35918;BME280;22011;59.912;30.300;2023-05-29T11:39:00;101520.84;;;17.78;36.07
35918;BME280;22011;59.912;30.300;2023-05-29T11:41:28;101522.00;;;17.69;36.28
35918;BME280;22011;59.912;30.300;2023-05-29T11:43:56;101525.97;;;17.52;35.81
35918;BME280;22011;59.912;30.300;2023-05-29T11:46:25;101525.19;;;17.37;36.28
35918;BME280;22011;59.912;30.300;2023-05-29T11:48:54;101525.84;;;17.39;36.82
35918;BME280;22011;59.912;30.300;2023-05-29T11:51:23;101522.78;;;17.42;36.68
35918;BME280;22011;59.912;30.300;2023-05-29T11:53:51;101519.38;;;17.54;35.22
35918;BME280;22011;59.912;30.300;2023-05-29T11:56:24;101508.13;;;17.66;34.34
35918;BME280;22011;59.912;30.300;2023-05-29T11:58:52;101518.41;;;17.62;32.91
35918;BME280;22011;59.912;30.300;2023-05-29T12:01:23;101510.31;;;17.62;32.69
35918;BME280;22011;59.912;30.300;2023-05-29T12:03:52;101512.13;;;17.76;31.47
35918;BME280;22011;59.912;30.300;2023-05-29T12:06:32;101517.13;;;17.79;32.24
35918;BME280;22011;59.912;30.300;2023-05-29T12:09:00;101519.19;;;17.56;32.62
35918;BME280;22011;59.912;30.300;2023-05-29T12:11:29;101516.19;;;17.66;32.97
35918;BME280;22011;59.912;30.300;2023-05-29T12:13:57;101523.78;;;17.83;32.83
35918;BME280;22011;59.912;30.300;2023-05-29T12:16:26;101517.03;;;17.94;32.58
35918;BME280;22011;59.912;30.300;2023-05-29T12:18:55;101515.19;;;17.94;32.16
35918;BME280;22011;59.912;30.300;2023-05-29T12:21:22;101511.44;;;17.95;31.93
35918;BME280;22011;59.912;30.300;2023-05-29T12:23:53;101517.38;;;18.12;30.62
35918;BME280;22011;59.912;30.300;2023-05-29T12:26:22;101504.94;;;18.11;29.43
35918;BME280;22011;59.912;30.300;2023-05-29T12:28:52;101517.44;;;18.19;28.33
35918;BME280;22011;59.912;30.300;2023-05-29T12:31:29;101518.66;;;18.44;28.93
35918;BME280;22011;59.912;30.300;2023-05-29T12:34:01;101522.91;;;18.32;29.44
35918;BME280;22011;59.912;30.300;2023-05-29T12:36:28;101514.34;;;18.22;29.25
35918;BME280;22011;59.912;30.300;2023-05-29T12:38:58;101534.06;;;18.22;29.23
35918;BME280;22011;59.912;30.300;2023-05-29T12:41:28;101535.03;;;18.15;29.48
35918;BME280;22011;59.912;30.300;2023-05-29T12:43:56;101538.53;;;18.09;29.81
35918;BME280;22011;59.912;30.300;2023-05-29T12:46:25;101533.91;;;18.03;30.54
35918;BME280;22011;59.912;30.300;2023-05-29T12:48:53;101542.84;;;18.03;31.45
35918;BME280;22011;59.912;30.300;2023-05-29T12:51:24;101538.53;;;18.09;31.61
35918;BME280;22011;59.912;30.300;2023-05-29T12:53:52;101536.94;;;17.93;30.83
35918;BME280;22011;59.912;30.300;2023-05-29T12:56:23;101539.81;;;17.91;30.90
35918;BME280;22011;59.912;30.300;2023-05-29T12:58:52;101536.88;;;17.86;30.54
35918;BME280;22011;59.912;30.300;2023-05-29T13:01:20;101539.97;;;17.83;29.74
35918;BME280;22011;59.912;30.300;2023-05-29T13:03:48;101533.28;;;17.79;29.98
35918;BME280;22011;59.912;30.300;2023-05-29T13:06:15;101535.34;;;17.77;30.45
35918;BME280;22011;59.912;30.300;2023-05-29T13:08:43;101536.00;;;17.79;30.43